Aeroporto :
LOGIN :

Iscrizione | Disclaimer

   EN    FR    IT 

 










Sommario :    VFR   VFR Marginale   IFR   IFR Intensivo   IFR Molto Intensivo
Visibilità : 
Base nubi : 
>= 8 km
>= 3000ft
5 / 8 km
1000 / 3000 ft
1500m / 5 km
500 / 1000 ft
800 / 1500m
200 / 500 ft
< 800m
< 200 ft
Simboli :   Temporali  Nebbia  Neve Forte  Precipitazioni Forti  Vento > 20 kt
SIGMETs :   Varie  Temporali  Ghiacco  Turbolenza  Onda orograficha  Ceneri Vulcaniche






- Altitudine del aeroporto : 7 ft
- Codice IATA : XHE


LFTH - Hyeres

ULTIMO METAR :
  • 220430Z AUTO 01005KT 9999 SCT020/// BKN046/// BKN052/// ///CB 18/17 Q1018 BECMG 07015G25KT NSC

METARs OBSOLETI :
  • 220400Z AUTO VRB02KT 9999 BKN048/// BKN058/// BKN072/// ///CB 17/16 Q1018 TEMPO SHRA BECMG BKN014
  • 220330Z AUTO 33005KT 9999 BKN048/// OVC058/// ///TCU 17/16 Q1018 TEMPO SHRA BECMG BKN014
  • 220300Z AUTO 32007KT 9999 ///TCU 17/15 Q1018 TEMPO SHRA BECMG BKN014
  • 220230Z AUTO 33005KT 9999 FEW016/// BKN070/// OVC088/// ///CB 17/15 Q1018 TEMPO SHRA BECMG BKN014
  • 220200Z AUTO 31007KT 9999 ///CB 17/15 Q1018 BECMG BKN014

TAF AMD TAF LFTH
Valido dal 22 a 04 ore il 23 a 03 ore UTC


220433Z 2204/2303 02005KT 9999 BKN020
PROB30
TEMPO 2204/2206 SHRA FEW017CB
BECMG 2206/2207 07015G25KT CAVOK
BECMG 2209/2210 08025G35KT SCT020



MetMap, La meteo Aeronautica in un colpo d'occhio ! - Copyright ORBIFLY Dicembre 2007 - Disclaimer

ORBIFLY MET'MAP TEAM :

Programmazione e sviluppo : Alexandra Zaïnal
Concezione e sviluppo : Baudouin d'Aumeries
Co-Programmazione e sviluppo : Marc-Olivier Méhu
Supporto tecnico e logistico : Manuel Goepfert
Aiuto per la traduzione : Arnaldo La Scala

Contatto : metmap@orbifly.com




FONTI E CREDITI :

   NOAA